createdAt,value
2022-09-27T00:00:17.616Z,97241.00
2022-09-27T00:01:51.129Z,97243.00
2022-09-27T00:03:24.552Z,97254.00
2022-09-27T00:04:58.686Z,97247.00
2022-09-27T00:06:37.439Z,97248.00
2022-09-27T00:09:27.125Z,97249.00
2022-09-27T00:11:39.136Z,97259.00
2022-09-27T00:13:12.695Z,97259.00
2022-09-27T00:14:47.353Z,97254.00
2022-09-27T00:16:21.227Z,97259.00
2022-09-27T00:17:55.131Z,97267.00
2022-09-27T00:19:27.436Z,97265.00
2022-09-27T00:21:08.480Z,97271.00
2022-09-27T00:22:42.113Z,97267.00
2022-09-27T00:24:19.146Z,97275.00
2022-09-27T00:25:59.975Z,97262.00
2022-09-27T00:27:33.389Z,97273.00
2022-09-27T00:29:06.833Z,97279.00
2022-09-27T00:30:43.672Z,97278.00
2022-09-27T00:32:17.436Z,97273.00
2022-09-27T00:33:53.321Z,97275.00
2022-09-27T00:35:27.161Z,97278.00
2022-09-27T00:37:00.513Z,97277.00
2022-09-27T00:38:33.796Z,97284.00
2022-09-27T00:40:08.696Z,97280.00
2022-09-27T00:41:42.055Z,97276.00
2022-09-27T00:43:21.588Z,97279.00
2022-09-27T00:45:15.077Z,97278.00
2022-09-27T00:46:55.602Z,97280.00
2022-09-27T00:48:36.756Z,97279.00
2022-09-27T00:50:23.008Z,97281.00
2022-09-27T00:52:03.470Z,97282.00
2022-09-27T00:53:46.281Z,97283.00
2022-09-27T00:55:26.275Z,97286.00
2022-09-27T00:57:01.165Z,97285.00
2022-09-27T00:58:43.496Z,97283.00
2022-09-27T01:00:18.960Z,97291.00
2022-09-27T01:01:57.744Z,97286.00
2022-09-27T01:03:45.794Z,97296.00
2022-09-27T01:05:27.497Z,97288.00
2022-09-27T01:07:04.916Z,97298.00
2022-09-27T01:08:42.640Z,97296.00
2022-09-27T01:10:22.783Z,97297.00
2022-09-27T01:12:14.165Z,97306.00
2022-09-27T01:14:20.446Z,97305.00
2022-09-27T01:16:09.707Z,97311.00
2022-09-27T01:18:03.723Z,97306.00
2022-09-27T01:20:14.186Z,97308.00
2022-09-27T01:22:00.104Z,97313.00
2022-09-27T01:24:28.485Z,97306.00
2022-09-27T01:26:18.109Z,97309.00
2022-09-27T01:28:21.012Z,97320.00
2022-09-27T01:30:20.999Z,97313.00
2022-09-27T01:32:08.470Z,97313.00
2022-09-27T01:33:48.610Z,97316.00
2022-09-27T01:35:32.418Z,97312.00
2022-09-27T01:37:21.474Z,97319.00
2022-09-27T01:39:12.122Z,97312.00
2022-09-27T01:41:13.762Z,97319.00
2022-09-27T01:43:13.448Z,97312.00
2022-09-27T01:44:55.870Z,97318.00
2022-09-27T01:46:40.294Z,97319.00
2022-09-27T01:48:42.666Z,97322.00
2022-09-27T01:50:34.014Z,97314.00
2022-09-27T01:52:12.247Z,97314.00
2022-09-27T01:53:50.201Z,97316.00
2022-09-27T01:55:49.011Z,97311.00
2022-09-27T01:57:50.185Z,97319.00
2022-09-27T01:59:39.370Z,97315.00
2022-09-27T02:01:27.492Z,97320.00
2022-09-27T02:03:10.127Z,97320.00
2022-09-27T02:05:08.397Z,97324.00
2022-09-27T02:06:48.399Z,97323.00
2022-09-27T02:08:37.687Z,97310.00
2022-09-27T02:10:23.795Z,97319.00
2022-09-27T02:12:09.599Z,97316.00
2022-09-27T02:13:51.044Z,97320.00
2022-09-27T02:15:57.206Z,97319.00
2022-09-27T02:17:54.920Z,97327.00
2022-09-27T02:19:47.805Z,97317.00
2022-09-27T02:21:26.441Z,97318.00
2022-09-27T02:23:14.688Z,97326.00
2022-09-27T02:24:58.421Z,97319.00
2022-09-27T02:26:41.797Z,97320.00
2022-09-27T02:28:27.365Z,97319.00
2022-09-27T02:30:07.094Z,97321.00
2022-09-27T02:31:43.125Z,97330.00
2022-09-27T02:33:16.965Z,97319.00
2022-09-27T02:34:53.593Z,97322.00
2022-09-27T02:36:27.444Z,97320.00
2022-09-27T02:38:02.715Z,97332.00
2022-09-27T02:39:36.379Z,97327.00
2022-09-27T02:41:17.231Z,97335.00
2022-09-27T02:42:51.307Z,97337.00
2022-09-27T02:44:26.786Z,97333.00
2022-09-27T02:46:21.371Z,97336.00
2022-09-27T02:48:16.406Z,97343.00
2022-09-27T02:50:06.959Z,97341.00
2022-09-27T02:52:14.854Z,97342.00
2022-09-27T02:54:09.264Z,97344.00
2022-09-27T02:56:12.781Z,97350.00
2022-09-27T02:58:22.782Z,97347.00
2022-09-27T03:00:37.771Z,97349.00
2022-09-27T03:02:39.623Z,97346.00
2022-09-27T03:04:49.365Z,97340.00
2022-09-27T03:06:25.401Z,97350.00
2022-09-27T03:07:59.731Z,97346.00
2022-09-27T03:09:44.895Z,97348.00
2022-09-27T03:11:18.530Z,97349.00
2022-09-27T03:12:53.336Z,97359.00
2022-09-27T03:14:26.952Z,97356.00
2022-09-27T03:16:09.119Z,97353.00
2022-09-27T03:18:03.052Z,97352.00
2022-09-27T03:19:57.973Z,97365.00
2022-09-27T03:21:51.699Z,97346.00
2022-09-27T03:23:25.663Z,97358.00
2022-09-27T03:24:59.476Z,97361.00
2022-09-27T03:26:33.131Z,97357.00
2022-09-27T03:28:06.804Z,97356.00
2022-09-27T03:29:41.477Z,97365.00
2022-09-27T03:31:16.368Z,97357.00
2022-09-27T03:32:57.148Z,97363.00
2022-09-27T03:34:51.323Z,97365.00
2022-09-27T03:36:25.210Z,97366.00
2022-09-27T03:37:58.786Z,97369.00
2022-09-27T03:39:33.136Z,97377.00
2022-09-27T03:41:07.579Z,97368.00
2022-09-27T03:42:44.048Z,97375.00
2022-09-27T03:44:20.206Z,97369.00
2022-09-27T03:45:53.765Z,97369.00
2022-09-27T03:47:27.331Z,97363.00
2022-09-27T03:49:01.123Z,97366.00
2022-09-27T03:50:36.344Z,97371.00
2022-09-27T03:52:09.852Z,97364.00
2022-09-27T03:53:43.816Z,97368.00
2022-09-27T03:55:20.425Z,97376.00
2022-09-27T03:56:54.287Z,97369.00
2022-09-27T03:58:27.943Z,97372.00
2022-09-27T04:00:01.220Z,97367.00
2022-09-27T04:02:03.335Z,97374.00
2022-09-27T04:03:57.107Z,97374.00
2022-09-27T04:05:37.774Z,97369.00
2022-09-27T04:07:17.507Z,97372.00
2022-09-27T04:08:51.332Z,97379.00
2022-09-27T04:10:25.937Z,97379.00
2022-09-27T04:11:59.395Z,97378.00
2022-09-27T04:13:34.061Z,97375.00
2022-09-27T04:15:08.285Z,97380.00
2022-09-27T04:17:11.987Z,97381.00
2022-09-27T04:19:02.688Z,97389.00
2022-09-27T04:20:57.419Z,97378.00
2022-09-27T04:22:31.795Z,97382.00
2022-09-27T04:24:05.365Z,97384.00
2022-09-27T04:25:40.508Z,97385.00
2022-09-27T04:27:22.726Z,97392.00
2022-09-27T04:28:56.842Z,97386.00
2022-09-27T04:30:31.055Z,97400.00
2022-09-27T04:32:34.753Z,97393.00
2022-09-27T04:34:45.874Z,97398.00
2022-09-27T04:36:29.831Z,97397.00
2022-09-27T04:38:07.311Z,97405.00
2022-09-27T04:39:41.056Z,97402.00
2022-09-27T04:41:15.456Z,97403.00
2022-09-27T04:42:49.248Z,97408.00
2022-09-27T04:44:21.708Z,97405.00
2022-09-27T04:45:57.250Z,97408.00
2022-09-27T04:47:30.872Z,97405.00
2022-09-27T04:49:06.060Z,97410.00
2022-09-27T04:50:41.526Z,97414.00
2022-09-27T04:52:15.764Z,97413.00
2022-09-27T04:53:49.612Z,97411.00
2022-09-27T04:55:24.372Z,97416.00
2022-09-27T04:56:58.100Z,97421.00
2022-09-27T04:58:33.506Z,97411.00
2022-09-27T05:00:10.146Z,97419.00
2022-09-27T05:01:45.160Z,97424.00
2022-09-27T05:03:34.648Z,97427.00
2022-09-27T05:05:17.195Z,97418.00
2022-09-27T05:06:56.280Z,97424.00
2022-09-27T05:08:38.656Z,97429.00
2022-09-27T05:10:26.224Z,97430.00
2022-09-27T05:11:59.741Z,97426.00
2022-09-27T05:13:46.106Z,97429.00
2022-09-27T05:15:19.799Z,97438.00
2022-09-27T05:17:16.552Z,97449.00
2022-09-27T05:19:07.791Z,97441.00
2022-09-27T05:21:01.331Z,97438.00
2022-09-27T05:22:42.021Z,97445.00
2022-09-27T05:24:15.962Z,97447.00
2022-09-27T05:25:49.483Z,97445.00
2022-09-27T05:27:23.028Z,97452.00
2022-09-27T05:28:56.891Z,97451.00
2022-09-27T05:30:31.763Z,97451.00
2022-09-27T05:32:15.145Z,97441.00
2022-09-27T05:33:50.595Z,97446.00
2022-09-27T05:35:51.107Z,97444.00
2022-09-27T05:37:25.103Z,97450.00
2022-09-27T05:38:58.855Z,97456.00
2022-09-27T05:40:41.694Z,97460.00
2022-09-27T05:42:17.665Z,97450.00
2022-09-27T05:43:52.607Z,97463.00
2022-09-27T05:45:27.099Z,97460.00
2022-09-27T05:47:04.222Z,97458.00
2022-09-27T05:48:38.375Z,97474.00
2022-09-27T05:50:13.709Z,97460.00
2022-09-27T05:51:49.046Z,97472.00
2022-09-27T05:53:22.635Z,97477.00
2022-09-27T05:54:56.187Z,97475.00
2022-09-27T05:56:29.691Z,97478.00
2022-09-27T05:58:32.744Z,97475.00
2022-09-27T06:00:18.267Z,97468.00
2022-09-27T06:02:05.331Z,97474.00
2022-09-27T06:03:58.916Z,97481.00
2022-09-27T06:05:53.156Z,97483.00
2022-09-27T06:07:41.672Z,97473.00
2022-09-27T06:09:23.284Z,97483.00
2022-09-27T06:11:04.285Z,97485.00
2022-09-27T06:12:38.744Z,97475.00
2022-09-27T06:14:22.167Z,97476.00
2022-09-27T06:16:06.697Z,97478.00
2022-09-27T06:17:42.930Z,97478.00
2022-09-27T06:19:22.214Z,97479.00
2022-09-27T06:20:56.513Z,97477.00
2022-09-27T06:22:30.108Z,97490.00
2022-09-27T06:24:07.164Z,97491.00
2022-09-27T06:25:43.131Z,97493.00
2022-09-27T06:27:36.501Z,97489.00
2022-09-27T06:29:13.387Z,97488.00
2022-09-27T06:30:53.910Z,97498.00
2022-09-27T06:32:48.896Z,97490.00
2022-09-27T06:34:28.426Z,97481.00
2022-09-27T06:36:04.215Z,97487.00
2022-09-27T06:37:38.529Z,97482.00
2022-09-27T06:39:12.182Z,97489.00
2022-09-27T06:41:01.790Z,97491.00
2022-09-27T06:42:50.366Z,97485.00
2022-09-27T06:44:29.735Z,97490.00
2022-09-27T06:46:23.257Z,97491.00
2022-09-27T06:48:18.208Z,97489.00
2022-09-27T06:50:05.708Z,97498.00
2022-09-27T06:51:40.395Z,97493.00
2022-09-27T06:53:16.971Z,97491.00
2022-09-27T06:54:50.534Z,97494.00
2022-09-27T06:56:24.134Z,97495.00
2022-09-27T06:58:20.383Z,97485.00
2022-09-27T07:00:26.972Z,97492.00
2022-09-27T07:02:20.596Z,97495.00
2022-09-27T07:04:07.245Z,97499.00
2022-09-27T07:05:58.905Z,97509.00
2022-09-27T07:07:56.108Z,97515.00
2022-09-27T07:09:29.708Z,97519.00
2022-09-27T07:11:06.459Z,97514.00
2022-09-27T07:12:41.272Z,97523.00
2022-09-27T07:14:17.383Z,97521.00
2022-09-27T07:15:50.982Z,97519.00
2022-09-27T07:17:24.795Z,97528.00
2022-09-27T07:18:59.141Z,97527.00
2022-09-27T07:20:37.156Z,97533.00
2022-09-27T07:22:11.282Z,97531.00
2022-09-27T07:23:46.440Z,97544.00
2022-09-27T07:25:21.267Z,97553.00
2022-09-27T07:26:56.294Z,97547.00
2022-09-27T07:28:30.749Z,97550.00
2022-09-27T07:30:07.240Z,97553.00
2022-09-27T07:31:42.671Z,97551.00
2022-09-27T07:33:16.858Z,97564.00
2022-09-27T07:34:50.529Z,97555.00
2022-09-27T07:36:25.611Z,97560.00
2022-09-27T07:37:59.985Z,97557.00
2022-09-27T07:39:34.014Z,97562.00
2022-09-27T07:41:10.758Z,97568.00
2022-09-27T07:42:44.663Z,97565.00
2022-09-27T07:44:18.422Z,97563.00
2022-09-27T07:46:13.412Z,97556.00
2022-09-27T07:47:56.150Z,97565.00
2022-09-27T07:49:45.557Z,97570.00
2022-09-27T07:51:40.345Z,97562.00
2022-09-27T07:53:33.871Z,97565.00
2022-09-27T07:55:27.791Z,97572.00
2022-09-27T07:57:11.201Z,97583.00
2022-09-27T07:58:53.681Z,97571.00
2022-09-27T08:00:27.386Z,97583.00
2022-09-27T08:02:01.467Z,97577.00
2022-09-27T08:03:36.132Z,97577.00
2022-09-27T08:05:10.892Z,97582.00
2022-09-27T08:06:47.488Z,97573.00
2022-09-27T08:08:21.594Z,97579.00
2022-09-27T08:09:57.375Z,97582.00
2022-09-27T08:11:30.895Z,97576.00
2022-09-27T08:13:06.424Z,97577.00
2022-09-27T08:14:44.972Z,97581.00
2022-09-27T08:16:21.990Z,97582.00
2022-09-27T08:18:16.378Z,97584.00
2022-09-27T08:20:10.757Z,97587.00
2022-09-27T08:22:05.795Z,97589.00
2022-09-27T08:23:46.781Z,97594.00
2022-09-27T08:25:25.395Z,97588.00
2022-09-27T08:27:19.377Z,97583.00
2022-09-27T08:28:57.069Z,97596.00
2022-09-27T08:30:33.813Z,97599.00
2022-09-27T08:32:08.500Z,97603.00
2022-09-27T08:33:42.166Z,97606.00
2022-09-27T08:35:17.180Z,97598.00
2022-09-27T08:36:51.414Z,97603.00
2022-09-27T08:38:26.908Z,97612.00
2022-09-27T08:40:00.718Z,97606.00
2022-09-27T08:41:41.747Z,97608.00
2022-09-27T08:43:30.826Z,97613.00
2022-09-27T08:45:14.983Z,97611.00
2022-09-27T08:47:03.718Z,97611.00
2022-09-27T08:48:40.469Z,97612.00
2022-09-27T08:50:27.630Z,97608.00
2022-09-27T08:52:05.119Z,97615.00
2022-09-27T08:53:49.203Z,97611.00
2022-09-27T08:55:37.295Z,97615.00
2022-09-27T08:57:17.990Z,97611.00
2022-09-27T08:58:59.990Z,97612.00
2022-09-27T09:00:39.622Z,97613.00
2022-09-27T09:02:21.308Z,97619.00
2022-09-27T09:04:04.186Z,97613.00
2022-09-27T09:05:39.424Z,97622.00
2022-09-27T09:07:43.118Z,97614.00
2022-09-27T09:09:35.279Z,97615.00
2022-09-27T09:11:59.998Z,97612.00
2022-09-27T09:13:54.004Z,97620.00
2022-09-27T09:15:55.162Z,97630.00
2022-09-27T09:17:51.021Z,97626.00
2022-09-27T09:19:58.655Z,97630.00
2022-09-27T09:21:57.696Z,97630.00
2022-09-27T09:24:04.661Z,97629.00
2022-09-27T09:25:54.948Z,97624.00
2022-09-27T09:27:44.230Z,97631.00
2022-09-27T09:29:41.027Z,97629.00
2022-09-27T09:31:29.966Z,97615.00
2022-09-27T09:33:19.646Z,97623.00
2022-09-27T09:35:01.972Z,97625.00
2022-09-27T09:36:43.930Z,97622.00
2022-09-27T09:38:25.151Z,97621.00
2022-09-27T09:40:09.160Z,97625.00
2022-09-27T09:42:03.186Z,97623.00
2022-09-27T09:43:44.013Z,97624.00
2022-09-27T09:45:23.101Z,97620.00
2022-09-27T09:47:01.640Z,97620.00
2022-09-27T09:48:45.828Z,97620.00
2022-09-27T09:50:27.278Z,97610.00
2022-09-27T09:52:09.091Z,97613.00
2022-09-27T09:53:52.523Z,97617.00
2022-09-27T09:55:37.358Z,97616.00
2022-09-27T09:57:19.517Z,97616.00
2022-09-27T09:59:02.253Z,97613.00
2022-09-27T10:00:42.767Z,97614.00
2022-09-27T10:02:32.522Z,97617.00
2022-09-27T10:04:20.980Z,97607.00
2022-09-27T10:05:54.741Z,97605.00
2022-09-27T10:07:30.169Z,97604.00
2022-09-27T10:09:04.794Z,97604.00
2022-09-27T10:10:45.528Z,97596.00
2022-09-27T10:12:39.790Z,97601.00
2022-09-27T10:14:16.664Z,97611.00
2022-09-27T10:16:02.513Z,97603.00
2022-09-27T10:17:42.556Z,97604.00
2022-09-27T10:19:27.407Z,97611.00
2022-09-27T10:21:08.191Z,97603.00
2022-09-27T10:22:49.030Z,97606.00
2022-09-27T10:24:57.853Z,97604.00
2022-09-27T10:26:48.478Z,97597.00
2022-09-27T10:28:34.417Z,97592.00
2022-09-27T10:30:23.825Z,97592.00
2022-09-27T10:31:58.396Z,97599.00
2022-09-27T10:33:56.098Z,97602.00
2022-09-27T10:35:40.072Z,97596.00
2022-09-27T10:37:19.675Z,97591.00
2022-09-27T10:39:06.954Z,97599.00
2022-09-27T10:40:47.469Z,97584.00
2022-09-27T10:42:34.716Z,97587.00
2022-09-27T10:44:26.829Z,97590.00
2022-09-27T10:46:21.592Z,97599.00
2022-09-27T10:47:59.589Z,97592.00
2022-09-27T10:49:45.030Z,97598.00
2022-09-27T10:51:37.944Z,97600.00
2022-09-27T10:53:18.722Z,97594.00
2022-09-27T10:54:59.912Z,97591.00
2022-09-27T10:56:36.172Z,97581.00
2022-09-27T10:58:21.731Z,97589.00
2022-09-27T11:00:00.887Z,97588.00
2022-09-27T11:01:45.700Z,97599.00
2022-09-27T11:03:28.839Z,97593.00
2022-09-27T11:05:15.263Z,97587.00
2022-09-27T11:06:50.804Z,97585.00
2022-09-27T11:08:32.506Z,97586.00
2022-09-27T11:10:29.897Z,97585.00
2022-09-27T11:12:13.288Z,97585.00
2022-09-27T11:14:03.162Z,97577.00
2022-09-27T11:16:01.676Z,97585.00
2022-09-27T11:17:49.511Z,97587.00
2022-09-27T11:19:59.885Z,97594.00
2022-09-27T11:21:49.065Z,97578.00
2022-09-27T11:23:45.101Z,97569.00
2022-09-27T11:25:39.960Z,97580.00
2022-09-27T11:27:29.796Z,97588.00
2022-09-27T11:29:21.489Z,97586.00
2022-09-27T11:31:32.989Z,97593.00
2022-09-27T11:33:40.379Z,97594.00
2022-09-27T11:35:35.203Z,97584.00
2022-09-27T11:37:28.118Z,97582.00
2022-09-27T11:39:12.019Z,97584.00
2022-09-27T11:41:19.060Z,97578.00
2022-09-27T11:43:27.216Z,97572.00
2022-09-27T11:45:50.526Z,97580.00
2022-09-27T11:47:37.411Z,97569.00
2022-09-27T11:49:52.392Z,97568.00
2022-09-27T11:51:55.697Z,97558.00
2022-09-27T11:53:55.145Z,97565.00
2022-09-27T11:55:47.171Z,97559.00
2022-09-27T11:57:28.823Z,97557.00
2022-09-27T11:59:30.479Z,97568.00
2022-09-27T12:01:26.947Z,97563.00
2022-09-27T12:03:36.780Z,97562.00
2022-09-27T12:05:31.244Z,97565.00
2022-09-27T12:07:20.719Z,97559.00
2022-09-27T12:09:11.668Z,97562.00
2022-09-27T12:10:52.615Z,97557.00
2022-09-27T12:12:30.387Z,97564.00
2022-09-27T12:14:11.224Z,97563.00
2022-09-27T12:15:48.997Z,97565.00
2022-09-27T12:17:35.272Z,97568.00
2022-09-27T12:19:21.834Z,97560.00
2022-09-27T12:21:10.567Z,97563.00
2022-09-27T12:22:59.137Z,97558.00
2022-09-27T12:24:47.845Z,97562.00
2022-09-27T12:26:43.884Z,97548.00
2022-09-27T12:28:28.122Z,97553.00
2022-09-27T12:30:06.377Z,97553.00
2022-09-27T12:31:48.450Z,97559.00
2022-09-27T12:33:33.823Z,97553.00
2022-09-27T12:35:20.191Z,97557.00
2022-09-27T12:37:05.131Z,97559.00
2022-09-27T12:38:46.751Z,97565.00
2022-09-27T12:40:26.054Z,97558.00
2022-09-27T12:42:09.568Z,97555.00
2022-09-27T12:43:51.949Z,97556.00
2022-09-27T12:45:48.402Z,97556.00
2022-09-27T12:47:45.414Z,97554.00
2022-09-27T12:49:34.165Z,97551.00
2022-09-27T12:51:13.636Z,97558.00
2022-09-27T12:52:59.292Z,97557.00
2022-09-27T12:54:56.733Z,97563.00
2022-09-27T12:56:51.607Z,97558.00
2022-09-27T12:59:10.780Z,97558.00
2022-09-27T13:00:57.982Z,97555.00
2022-09-27T13:03:16.232Z,97551.00
2022-09-27T13:05:37.792Z,97549.00
2022-09-27T13:07:31.654Z,97550.00
2022-09-27T13:09:40.681Z,97554.00
2022-09-27T13:11:24.791Z,97547.00
2022-09-27T13:13:01.129Z,97553.00
2022-09-27T13:14:42.954Z,97550.00
2022-09-27T13:16:17.239Z,97552.00
2022-09-27T13:17:57.330Z,97553.00
2022-09-27T13:19:45.666Z,97538.00
2022-09-27T13:21:59.913Z,97553.00
2022-09-27T13:23:54.555Z,97555.00
2022-09-27T13:25:55.804Z,97555.00
2022-09-27T13:27:42.780Z,97560.00
2022-09-27T13:29:34.437Z,97560.00
2022-09-27T13:31:16.540Z,97561.00
2022-09-27T13:33:40.599Z,97566.00
2022-09-27T13:35:24.325Z,97569.00
2022-09-27T13:37:40.681Z,97576.00
2022-09-27T13:39:23.825Z,97573.00
2022-09-27T13:41:20.009Z,97563.00
2022-09-27T13:43:42.990Z,97568.00
2022-09-27T13:45:35.499Z,97564.00
2022-09-27T13:47:30.297Z,97570.00
2022-09-27T13:49:16.143Z,97568.00
2022-09-27T13:51:24.428Z,97566.00
2022-09-27T13:53:20.731Z,97567.00
2022-09-27T13:54:58.668Z,97576.00
2022-09-27T13:56:54.428Z,97582.00
2022-09-27T13:58:49.837Z,97584.00
2022-09-27T14:00:48.343Z,97582.00
2022-09-27T14:02:30.201Z,97578.00
2022-09-27T14:04:14.497Z,97579.00
2022-09-27T14:05:53.462Z,97578.00
2022-09-27T14:07:38.152Z,97589.00
2022-09-27T14:09:21.639Z,97587.00
2022-09-27T14:11:14.916Z,97592.00
2022-09-27T14:12:53.130Z,97600.00
2022-09-27T14:14:32.835Z,97596.00
2022-09-27T14:16:10.802Z,97596.00
2022-09-27T14:17:45.916Z,97594.00
2022-09-27T14:19:25.470Z,97583.00
2022-09-27T14:21:21.214Z,97582.00
2022-09-27T14:23:05.028Z,97587.00
2022-09-27T14:24:49.078Z,97586.00
2022-09-27T14:26:29.919Z,97589.00
2022-09-27T14:28:03.945Z,97582.00
2022-09-27T14:29:47.748Z,97578.00
2022-09-27T14:31:27.586Z,97580.00
2022-09-27T14:33:34.443Z,97584.00
2022-09-27T14:35:35.877Z,97584.00
2022-09-27T14:37:27.037Z,97576.00
2022-09-27T14:39:22.436Z,97580.00
2022-09-27T14:41:03.349Z,97591.00
2022-09-27T14:42:39.219Z,97587.00
2022-09-27T14:44:19.269Z,97582.00
2022-09-27T14:45:59.668Z,97584.00
2022-09-27T14:47:34.524Z,97590.00
2022-09-27T14:49:20.284Z,97589.00
2022-09-27T14:51:04.970Z,97589.00
2022-09-27T14:52:41.283Z,97591.00
2022-09-27T14:54:25.249Z,97585.00
2022-09-27T14:55:59.979Z,97585.00
2022-09-27T14:57:38.691Z,97596.00
2022-09-27T14:59:24.187Z,97592.00
2022-09-27T15:01:00.178Z,97596.00
2022-09-27T15:02:42.086Z,97589.00
2022-09-27T15:04:16.720Z,97594.00
2022-09-27T15:05:50.444Z,97602.00
2022-09-27T15:07:24.857Z,97602.00
2022-09-27T15:08:59.491Z,97594.00
2022-09-27T15:10:37.553Z,97591.00
2022-09-27T15:12:15.327Z,97593.00
2022-09-27T15:13:54.379Z,97600.00
2022-09-27T15:15:32.345Z,97595.00
2022-09-27T15:17:06.447Z,97600.00
2022-09-27T15:18:46.445Z,97589.00
2022-09-27T15:20:32.214Z,97605.00
2022-09-27T15:22:36.232Z,97599.00
2022-09-27T15:24:44.437Z,97604.00
2022-09-27T15:26:22.284Z,97598.00
2022-09-27T15:27:57.024Z,97606.00
2022-09-27T15:29:30.758Z,97612.00
2022-09-27T15:31:05.706Z,97607.00
2022-09-27T15:32:39.338Z,97606.00
2022-09-27T15:34:24.096Z,97607.00
2022-09-27T15:36:07.859Z,97608.00
2022-09-27T15:37:44.075Z,97613.00
2022-09-27T15:39:27.270Z,97619.00
2022-09-27T15:41:14.562Z,97604.00
2022-09-27T15:42:58.279Z,97616.00
2022-09-27T15:44:45.861Z,97614.00
2022-09-27T15:46:47.629Z,97608.00
2022-09-27T15:48:22.636Z,97603.00
2022-09-27T15:49:55.999Z,97608.00
2022-09-27T15:51:43.160Z,97608.00
2022-09-27T15:53:44.244Z,97611.00
2022-09-27T15:55:19.523Z,97611.00
2022-09-27T15:56:58.209Z,97620.00
2022-09-27T15:58:32.516Z,97607.00
2022-09-27T16:00:07.923Z,97619.00
2022-09-27T16:02:04.241Z,97612.00
2022-09-27T16:03:44.848Z,97619.00
2022-09-27T16:05:18.232Z,97614.00
2022-09-27T16:06:52.032Z,97622.00
2022-09-27T16:08:25.998Z,97620.00
2022-09-27T16:09:59.338Z,97619.00
2022-09-27T16:11:32.769Z,97613.00
2022-09-27T16:13:06.103Z,97608.00
2022-09-27T16:14:39.499Z,97615.00
2022-09-27T16:16:21.732Z,97616.00
2022-09-27T16:17:57.683Z,97612.00
2022-09-27T16:19:30.994Z,97613.00
2022-09-27T16:21:04.708Z,97609.00
2022-09-27T16:22:37.962Z,97611.00
2022-09-27T16:24:11.839Z,97608.00
2022-09-27T16:25:45.281Z,97608.00
2022-09-27T16:27:24.759Z,97610.00
2022-09-27T16:28:58.561Z,97608.00
2022-09-27T16:30:32.809Z,97616.00
2022-09-27T16:32:06.883Z,97614.00
2022-09-27T16:33:41.711Z,97615.00
2022-09-27T16:35:17.923Z,97609.00
2022-09-27T16:36:51.618Z,97615.00
2022-09-27T16:38:27.012Z,97620.00
2022-09-27T16:40:00.405Z,97620.00
2022-09-27T16:41:35.677Z,97621.00
2022-09-27T16:43:09.001Z,97612.00
2022-09-27T16:44:42.941Z,97614.00
2022-09-27T16:46:19.236Z,97623.00
2022-09-27T16:47:52.568Z,97614.00
2022-09-27T16:49:44.975Z,97618.00
2022-09-27T16:51:50.614Z,97621.00
2022-09-27T16:53:24.425Z,97619.00
2022-09-27T16:54:57.891Z,97612.00
2022-09-27T16:56:32.150Z,97609.00
2022-09-27T16:58:07.307Z,97606.00
2022-09-27T16:59:40.746Z,97613.00
2022-09-27T17:01:16.725Z,97613.00
2022-09-27T17:02:51.816Z,97608.00
2022-09-27T17:04:29.432Z,97608.00
2022-09-27T17:06:04.309Z,97612.00
2022-09-27T17:07:37.707Z,97610.00
2022-09-27T17:09:12.140Z,97611.00
2022-09-27T17:10:46.534Z,97612.00
2022-09-27T17:12:20.441Z,97609.00
2022-09-27T17:13:56.984Z,97609.00
2022-09-27T17:15:31.290Z,97608.00
2022-09-27T17:17:04.541Z,97609.00
2022-09-27T17:18:39.109Z,97606.00
2022-09-27T17:20:13.958Z,97607.00
2022-09-27T17:21:47.782Z,97607.00
2022-09-27T17:23:21.012Z,97601.00
2022-09-27T17:24:54.379Z,97606.00
2022-09-27T17:26:30.500Z,97604.00
2022-09-27T17:28:03.983Z,97604.00
2022-09-27T17:29:38.684Z,97596.00
2022-09-27T17:31:15.516Z,97593.00
2022-09-27T17:32:48.923Z,97589.00
2022-09-27T17:34:23.091Z,97589.00
2022-09-27T17:36:02.403Z,97582.00
2022-09-27T17:37:35.920Z,97581.00
2022-09-27T17:39:12.733Z,97587.00
2022-09-27T17:40:46.223Z,97586.00
2022-09-27T17:42:19.842Z,97576.00
2022-09-27T17:43:55.520Z,97592.00
2022-09-27T17:45:28.905Z,97596.00
2022-09-27T17:47:19.783Z,97593.00
2022-09-27T17:49:10.907Z,97589.00
2022-09-27T17:50:47.975Z,97588.00
2022-09-27T17:52:23.411Z,97591.00
2022-09-27T17:53:57.007Z,97590.00
2022-09-27T17:55:32.547Z,97594.00
2022-09-27T17:57:05.904Z,97590.00
2022-09-27T17:58:39.625Z,97591.00
2022-09-27T18:00:13.418Z,97592.00
2022-09-27T18:01:49.490Z,97590.00
2022-09-27T18:03:22.802Z,97585.00
2022-09-27T18:04:56.243Z,97584.00
2022-09-27T18:06:30.245Z,97581.00
2022-09-27T18:08:05.086Z,97586.00
2022-09-27T18:09:38.304Z,97577.00
2022-09-27T18:11:13.734Z,97581.00
2022-09-27T18:12:47.439Z,97584.00
2022-09-27T18:14:22.108Z,97581.00
2022-09-27T18:15:59.754Z,97568.00
2022-09-27T18:17:33.696Z,97577.00
2022-09-27T18:19:11.828Z,97572.00
2022-09-27T18:20:45.408Z,97582.00
2022-09-27T18:22:20.194Z,97563.00
2022-09-27T18:23:57.499Z,97570.00
2022-09-27T18:25:30.907Z,97561.00
2022-09-27T18:27:04.274Z,97571.00
2022-09-27T18:28:39.883Z,97564.00
2022-09-27T18:30:13.694Z,97557.00
2022-09-27T18:31:49.088Z,97565.00
2022-09-27T18:33:22.832Z,97559.00
2022-09-27T18:34:56.580Z,97560.00
2022-09-27T18:36:30.282Z,97556.00
2022-09-27T18:38:04.246Z,97556.00
2022-09-27T18:39:40.274Z,97551.00
2022-09-27T18:41:16.621Z,97558.00
2022-09-27T18:42:50.320Z,97547.00
2022-09-27T18:44:23.807Z,97542.00
2022-09-27T18:46:07.650Z,97547.00
2022-09-27T18:47:50.629Z,97542.00
2022-09-27T18:49:27.058Z,97556.00
2022-09-27T18:51:09.183Z,97556.00
2022-09-27T18:52:42.667Z,97545.00
2022-09-27T18:54:19.239Z,97548.00
2022-09-27T18:55:54.466Z,97550.00
2022-09-27T18:57:28.136Z,97556.00
2022-09-27T18:59:01.504Z,97547.00
2022-09-27T19:00:34.922Z,97560.00
2022-09-27T19:02:13.769Z,97543.00
2022-09-27T19:03:47.644Z,97553.00
2022-09-27T19:05:21.164Z,97556.00
2022-09-27T19:06:57.733Z,97548.00
2022-09-27T19:08:34.249Z,97555.00
2022-09-27T19:10:10.098Z,97550.00
2022-09-27T19:11:45.013Z,97552.00
2022-09-27T19:13:24.081Z,97559.00
2022-09-27T19:15:01.492Z,97548.00
2022-09-27T19:16:35.574Z,97556.00
2022-09-27T19:18:09.428Z,97551.00
2022-09-27T19:19:42.967Z,97552.00
2022-09-27T19:21:20.773Z,97546.00
2022-09-27T19:22:56.171Z,97549.00
2022-09-27T19:24:29.560Z,97543.00
2022-09-27T19:26:04.783Z,97542.00
2022-09-27T19:27:43.082Z,97546.00
2022-09-27T19:29:19.888Z,97547.00
2022-09-27T19:30:53.377Z,97550.00
2022-09-27T19:32:27.734Z,97533.00
2022-09-27T19:34:01.081Z,97539.00
2022-09-27T19:35:34.533Z,97533.00
2022-09-27T19:37:07.968Z,97534.00
2022-09-27T19:38:41.540Z,97532.00
2022-09-27T19:40:15.252Z,97536.00
2022-09-27T19:41:48.737Z,97528.00
2022-09-27T19:43:23.659Z,97525.00
2022-09-27T19:44:57.352Z,97515.00
2022-09-27T19:46:30.829Z,97522.00
2022-09-27T19:48:04.289Z,97517.00
2022-09-27T19:49:37.628Z,97513.00
2022-09-27T19:51:15.545Z,97517.00
2022-09-27T19:52:49.475Z,97502.00
2022-09-27T19:54:24.031Z,97509.00
2022-09-27T19:55:59.374Z,97515.00
2022-09-27T19:57:33.165Z,97524.00
2022-09-27T19:59:07.963Z,97512.00
2022-09-27T20:00:41.252Z,97522.00
2022-09-27T20:02:14.910Z,97516.00
2022-09-27T20:03:50.382Z,97511.00
2022-09-27T20:05:23.866Z,97514.00